sensor_id;sensor_type;location;lat;lon;timestamp;P1;durP1;ratioP1;P2;durP2;ratioP2
23716;SDS011;22094;52.130;5.598;2023-05-17T00:01:03;33.00;;;8.73;;
23716;SDS011;22094;52.130;5.598;2023-05-17T00:03:29;35.17;;;8.45;;
23716;SDS011;22094;52.130;5.598;2023-05-17T00:05:55;30.70;;;9.10;;
23716;SDS011;22094;52.130;5.598;2023-05-17T00:08:20;34.03;;;8.13;;
23716;SDS011;22094;52.130;5.598;2023-05-17T00:10:46;33.50;;;9.63;;
23716;SDS011;22094;52.130;5.598;2023-05-17T00:13:11;26.45;;;9.55;;
23716;SDS011;22094;52.130;5.598;2023-05-17T00:15:37;37.75;;;8.40;;
23716;SDS011;22094;52.130;5.598;2023-05-17T00:18:02;27.63;;;8.55;;
23716;SDS011;22094;52.130;5.598;2023-05-17T00:20:28;27.83;;;8.95;;
23716;SDS011;22094;52.130;5.598;2023-05-17T00:22:54;43.80;;;9.82;;
23716;SDS011;22094;52.130;5.598;2023-05-17T00:25:19;24.50;;;9.27;;
23716;SDS011;22094;52.130;5.598;2023-05-17T00:27:45;31.13;;;9.40;;
23716;SDS011;22094;52.130;5.598;2023-05-17T00:30:11;37.40;;;9.65;;
23716;SDS011;22094;52.130;5.598;2023-05-17T00:32:36;27.00;;;8.88;;
23716;SDS011;22094;52.130;5.598;2023-05-17T00:35:02;24.50;;;9.50;;
23716;SDS011;22094;52.130;5.598;2023-05-17T00:37:28;34.50;;;9.82;;
23716;SDS011;22094;52.130;5.598;2023-05-17T00:39:53;30.88;;;9.88;;
23716;SDS011;22094;52.130;5.598;2023-05-17T00:42:19;29.45;;;9.73;;
23716;SDS011;22094;52.130;5.598;2023-05-17T00:44:44;40.72;;;8.93;;
23716;SDS011;22094;52.130;5.598;2023-05-17T00:47:10;24.15;;;8.85;;
23716;SDS011;22094;52.130;5.598;2023-05-17T00:49:35;30.17;;;9.85;;
23716;SDS011;22094;52.130;5.598;2023-05-17T00:52:01;34.40;;;10.65;;
23716;SDS011;22094;52.130;5.598;2023-05-17T00:54:27;34.63;;;9.52;;
23716;SDS011;22094;52.130;5.598;2023-05-17T00:56:54;36.22;;;9.88;;
23716;SDS011;22094;52.130;5.598;2023-05-17T00:59:21;37.65;;;10.55;;
23716;SDS011;22094;52.130;5.598;2023-05-17T01:01:47;30.00;;;9.55;;
23716;SDS011;22094;52.130;5.598;2023-05-17T01:04:13;42.03;;;10.50;;
23716;SDS011;22094;52.130;5.598;2023-05-17T01:06:39;37.67;;;10.98;;
23716;SDS011;22094;52.130;5.598;2023-05-17T01:09:05;39.92;;;11.13;;
23716;SDS011;22094;52.130;5.598;2023-05-17T01:11:38;47.65;;;12.27;;
23716;SDS011;22094;52.130;5.598;2023-05-17T01:17:01;37.80;;;11.10;;
23716;SDS011;22094;52.130;5.598;2023-05-17T01:19:44;39.72;;;12.13;;
23716;SDS011;22094;52.130;5.598;2023-05-17T01:22:37;47.38;;;13.25;;
23716;SDS011;22094;52.130;5.598;2023-05-17T01:25:10;32.63;;;10.68;;
23716;SDS011;22094;52.130;5.598;2023-05-17T01:27:57;37.60;;;10.90;;
23716;SDS011;22094;52.130;5.598;2023-05-17T01:30:25;34.25;;;11.20;;
23716;SDS011;22094;52.130;5.598;2023-05-17T01:32:54;37.67;;;11.98;;
23716;SDS011;22094;52.130;5.598;2023-05-17T01:35:22;28.63;;;10.80;;
23716;SDS011;22094;52.130;5.598;2023-05-17T01:37:48;25.83;;;10.25;;
23716;SDS011;22094;52.130;5.598;2023-05-17T01:40:14;37.30;;;12.15;;
23716;SDS011;22094;52.130;5.598;2023-05-17T01:42:42;32.33;;;10.20;;
23716;SDS011;22094;52.130;5.598;2023-05-17T01:48:02;28.90;;;9.88;;
23716;SDS011;22094;52.130;5.598;2023-05-17T01:50:34;37.05;;;10.68;;
23716;SDS011;22094;52.130;5.598;2023-05-17T01:53:07;34.55;;;10.02;;
23716;SDS011;22094;52.130;5.598;2023-05-17T01:55:42;28.80;;;10.25;;
23716;SDS011;22094;52.130;5.598;2023-05-17T01:58:13;38.65;;;10.63;;
23716;SDS011;22094;52.130;5.598;2023-05-17T02:00:42;35.85;;;10.65;;
23716;SDS011;22094;52.130;5.598;2023-05-17T02:03:16;30.10;;;9.68;;
23716;SDS011;22094;52.130;5.598;2023-05-17T02:05:42;36.70;;;10.68;;
23716;SDS011;22094;52.130;5.598;2023-05-17T02:08:08;27.63;;;10.20;;
23716;SDS011;22094;52.130;5.598;2023-05-17T02:10:34;33.65;;;10.57;;
23716;SDS011;22094;52.130;5.598;2023-05-17T02:12:59;28.42;;;9.90;;
23716;SDS011;22094;52.130;5.598;2023-05-17T02:15:25;34.10;;;10.57;;
23716;SDS011;22094;52.130;5.598;2023-05-17T02:17:50;25.33;;;10.20;;
23716;SDS011;22094;52.130;5.598;2023-05-17T02:20:16;34.30;;;9.73;;
23716;SDS011;22094;52.130;5.598;2023-05-17T02:22:42;30.40;;;9.50;;
23716;SDS011;22094;52.130;5.598;2023-05-17T02:25:08;27.05;;;9.93;;
23716;SDS011;22094;52.130;5.598;2023-05-17T02:27:33;36.33;;;10.63;;
23716;SDS011;22094;52.130;5.598;2023-05-17T02:30:00;36.60;;;10.60;;
23716;SDS011;22094;52.130;5.598;2023-05-17T02:32:26;34.20;;;10.20;;
23716;SDS011;22094;52.130;5.598;2023-05-17T02:34:52;33.08;;;10.40;;
23716;SDS011;22094;52.130;5.598;2023-05-17T02:37:18;41.20;;;9.90;;
23716;SDS011;22094;52.130;5.598;2023-05-17T02:39:44;29.38;;;11.00;;
23716;SDS011;22094;52.130;5.598;2023-05-17T02:42:09;29.30;;;10.52;;
23716;SDS011;22094;52.130;5.598;2023-05-17T02:44:35;32.95;;;10.70;;
23716;SDS011;22094;52.130;5.598;2023-05-17T02:47:01;34.03;;;11.35;;
23716;SDS011;22094;52.130;5.598;2023-05-17T02:49:26;35.53;;;11.48;;
23716;SDS011;22094;52.130;5.598;2023-05-17T02:51:52;29.42;;;10.38;;
23716;SDS011;22094;52.130;5.598;2023-05-17T02:54:17;33.97;;;10.30;;
23716;SDS011;22094;52.130;5.598;2023-05-17T02:56:43;33.55;;;10.98;;
23716;SDS011;22094;52.130;5.598;2023-05-17T02:59:09;36.55;;;10.88;;
23716;SDS011;22094;52.130;5.598;2023-05-17T03:01:34;33.65;;;11.20;;
23716;SDS011;22094;52.130;5.598;2023-05-17T03:04:00;40.55;;;11.65;;
23716;SDS011;22094;52.130;5.598;2023-05-17T03:06:25;29.48;;;10.65;;
23716;SDS011;22094;52.130;5.598;2023-05-17T03:08:51;34.88;;;10.68;;
23716;SDS011;22094;52.130;5.598;2023-05-17T03:11:16;33.67;;;10.80;;
23716;SDS011;22094;52.130;5.598;2023-05-17T03:13:42;27.65;;;10.63;;
23716;SDS011;22094;52.130;5.598;2023-05-17T03:16:07;31.67;;;11.15;;
23716;SDS011;22094;52.130;5.598;2023-05-17T03:18:33;35.33;;;11.23;;
23716;SDS011;22094;52.130;5.598;2023-05-17T03:20:59;37.60;;;12.73;;
23716;SDS011;22094;52.130;5.598;2023-05-17T03:23:25;38.53;;;13.68;;
23716;SDS011;22094;52.130;5.598;2023-05-17T03:25:50;36.42;;;13.57;;
23716;SDS011;22094;52.130;5.598;2023-05-17T03:28:16;38.85;;;13.27;;
23716;SDS011;22094;52.130;5.598;2023-05-17T03:30:41;33.53;;;12.00;;
23716;SDS011;22094;52.130;5.598;2023-05-17T03:33:07;32.80;;;12.95;;
23716;SDS011;22094;52.130;5.598;2023-05-17T03:35:33;33.03;;;12.38;;
23716;SDS011;22094;52.130;5.598;2023-05-17T03:37:58;32.38;;;11.98;;
23716;SDS011;22094;52.130;5.598;2023-05-17T03:40:24;35.97;;;12.07;;
23716;SDS011;22094;52.130;5.598;2023-05-17T03:42:49;29.60;;;11.02;;
23716;SDS011;22094;52.130;5.598;2023-05-17T03:45:15;23.42;;;10.60;;
23716;SDS011;22094;52.130;5.598;2023-05-17T03:47:41;26.55;;;11.68;;
23716;SDS011;22094;52.130;5.598;2023-05-17T03:50:07;28.45;;;11.50;;
23716;SDS011;22094;52.130;5.598;2023-05-17T03:52:33;23.67;;;10.50;;
23716;SDS011;22094;52.130;5.598;2023-05-17T03:54:59;25.08;;;10.55;;
23716;SDS011;22094;52.130;5.598;2023-05-17T03:57:24;27.95;;;10.23;;
23716;SDS011;22094;52.130;5.598;2023-05-17T03:59:50;32.35;;;11.20;;
23716;SDS011;22094;52.130;5.598;2023-05-17T04:02:16;27.65;;;11.20;;
23716;SDS011;22094;52.130;5.598;2023-05-17T04:04:47;32.97;;;10.82;;
23716;SDS011;22094;52.130;5.598;2023-05-17T04:07:14;30.35;;;10.60;;
23716;SDS011;22094;52.130;5.598;2023-05-17T04:09:39;27.77;;;11.10;;
23716;SDS011;22094;52.130;5.598;2023-05-17T04:12:05;36.08;;;12.25;;
23716;SDS011;22094;52.130;5.598;2023-05-17T04:14:30;29.60;;;12.32;;
23716;SDS011;22094;52.130;5.598;2023-05-17T04:16:56;28.48;;;12.32;;
23716;SDS011;22094;52.130;5.598;2023-05-17T04:19:22;29.67;;;11.02;;
23716;SDS011;22094;52.130;5.598;2023-05-17T04:21:47;29.20;;;12.23;;
23716;SDS011;22094;52.130;5.598;2023-05-17T04:24:16;24.40;;;11.50;;
23716;SDS011;22094;52.130;5.598;2023-05-17T04:26:41;34.38;;;12.15;;
23716;SDS011;22094;52.130;5.598;2023-05-17T04:29:08;32.83;;;11.93;;
23716;SDS011;22094;52.130;5.598;2023-05-17T04:31:33;43.88;;;14.30;;
23716;SDS011;22094;52.130;5.598;2023-05-17T04:33:59;33.03;;;13.57;;
23716;SDS011;22094;52.130;5.598;2023-05-17T04:36:25;33.55;;;12.75;;
23716;SDS011;22094;52.130;5.598;2023-05-17T04:38:50;29.80;;;12.73;;
23716;SDS011;22094;52.130;5.598;2023-05-17T04:41:16;33.35;;;12.15;;
23716;SDS011;22094;52.130;5.598;2023-05-17T04:43:41;35.22;;;12.20;;
23716;SDS011;22094;52.130;5.598;2023-05-17T04:46:07;33.45;;;12.88;;
23716;SDS011;22094;52.130;5.598;2023-05-17T04:48:33;29.05;;;12.20;;
23716;SDS011;22094;52.130;5.598;2023-05-17T04:51:00;27.15;;;12.77;;
23716;SDS011;22094;52.130;5.598;2023-05-17T04:53:28;41.28;;;14.35;;
23716;SDS011;22094;52.130;5.598;2023-05-17T04:55:54;33.75;;;14.38;;
23716;SDS011;22094;52.130;5.598;2023-05-17T04:58:19;31.38;;;15.30;;
23716;SDS011;22094;52.130;5.598;2023-05-17T05:00:45;24.55;;;13.13;;
23716;SDS011;22094;52.130;5.598;2023-05-17T05:03:10;28.20;;;13.10;;
23716;SDS011;22094;52.130;5.598;2023-05-17T05:05:36;26.85;;;12.45;;
23716;SDS011;22094;52.130;5.598;2023-05-17T05:08:01;29.35;;;12.32;;
23716;SDS011;22094;52.130;5.598;2023-05-17T05:10:27;26.73;;;12.10;;
23716;SDS011;22094;52.130;5.598;2023-05-17T05:12:53;26.02;;;10.82;;
23716;SDS011;22094;52.130;5.598;2023-05-17T05:15:18;22.92;;;9.55;;
23716;SDS011;22094;52.130;5.598;2023-05-17T05:17:44;18.20;;;7.50;;
23716;SDS011;22094;52.130;5.598;2023-05-17T05:20:09;17.60;;;5.85;;
23716;SDS011;22094;52.130;5.598;2023-05-17T05:22:36;16.38;;;5.18;;
23716;SDS011;22094;52.130;5.598;2023-05-17T05:25:01;17.67;;;4.85;;
23716;SDS011;22094;52.130;5.598;2023-05-17T05:27:27;15.90;;;4.55;;
23716;SDS011;22094;52.130;5.598;2023-05-17T05:29:53;14.30;;;4.93;;
23716;SDS011;22094;52.130;5.598;2023-05-17T05:32:19;17.05;;;5.07;;
23716;SDS011;22094;52.130;5.598;2023-05-17T05:34:44;16.70;;;4.45;;
23716;SDS011;22094;52.130;5.598;2023-05-17T05:37:10;13.60;;;4.20;;
23716;SDS011;22094;52.130;5.598;2023-05-17T05:39:36;15.10;;;4.30;;
23716;SDS011;22094;52.130;5.598;2023-05-17T05:42:01;15.40;;;3.72;;
23716;SDS011;22094;52.130;5.598;2023-05-17T05:44:28;18.00;;;3.95;;
23716;SDS011;22094;52.130;5.598;2023-05-17T05:46:54;15.43;;;4.13;;
23716;SDS011;22094;52.130;5.598;2023-05-17T05:49:19;14.88;;;3.30;;
23716;SDS011;22094;52.130;5.598;2023-05-17T05:51:45;12.35;;;3.15;;
23716;SDS011;22094;52.130;5.598;2023-05-17T05:54:12;15.50;;;3.30;;
23716;SDS011;22094;52.130;5.598;2023-05-17T05:56:38;13.20;;;3.20;;
23716;SDS011;22094;52.130;5.598;2023-05-17T05:59:03;11.80;;;2.42;;
23716;SDS011;22094;52.130;5.598;2023-05-17T06:01:29;15.93;;;3.40;;
23716;SDS011;22094;52.130;5.598;2023-05-17T06:03:55;15.15;;;3.20;;
23716;SDS011;22094;52.130;5.598;2023-05-17T06:06:21;19.60;;;3.80;;
23716;SDS011;22094;52.130;5.598;2023-05-17T06:08:46;13.80;;;2.65;;
23716;SDS011;22094;52.130;5.598;2023-05-17T06:11:12;14.65;;;3.42;;
23716;SDS011;22094;52.130;5.598;2023-05-17T06:13:38;13.63;;;2.80;;
23716;SDS011;22094;52.130;5.598;2023-05-17T06:16:04;18.17;;;3.42;;
23716;SDS011;22094;52.130;5.598;2023-05-17T06:18:30;12.40;;;3.60;;
23716;SDS011;22094;52.130;5.598;2023-05-17T06:20:56;11.80;;;3.30;;
23716;SDS011;22094;52.130;5.598;2023-05-17T06:23:22;14.40;;;2.92;;
23716;SDS011;22094;52.130;5.598;2023-05-17T06:25:48;21.70;;;3.85;;
23716;SDS011;22094;52.130;5.598;2023-05-17T06:28:13;22.63;;;4.07;;
23716;SDS011;22094;52.130;5.598;2023-05-17T06:30:39;17.15;;;3.60;;
23716;SDS011;22094;52.130;5.598;2023-05-17T06:33:05;15.30;;;3.60;;
23716;SDS011;22094;52.130;5.598;2023-05-17T06:35:31;16.17;;;3.85;;
23716;SDS011;22094;52.130;5.598;2023-05-17T06:37:56;14.38;;;3.08;;
23716;SDS011;22094;52.130;5.598;2023-05-17T06:40:22;19.27;;;3.40;;
23716;SDS011;22094;52.130;5.598;2023-05-17T06:42:48;13.38;;;2.90;;
23716;SDS011;22094;52.130;5.598;2023-05-17T06:45:13;11.75;;;2.67;;
23716;SDS011;22094;52.130;5.598;2023-05-17T06:47:39;10.95;;;2.50;;
23716;SDS011;22094;52.130;5.598;2023-05-17T06:50:05;11.25;;;3.55;;
23716;SDS011;22094;52.130;5.598;2023-05-17T06:52:32;13.13;;;3.13;;
23716;SDS011;22094;52.130;5.598;2023-05-17T06:54:58;11.73;;;2.85;;
23716;SDS011;22094;52.130;5.598;2023-05-17T06:57:24;13.02;;;2.70;;
23716;SDS011;22094;52.130;5.598;2023-05-17T06:59:50;11.85;;;2.80;;
23716;SDS011;22094;52.130;5.598;2023-05-17T07:02:16;12.20;;;2.63;;
23716;SDS011;22094;52.130;5.598;2023-05-17T07:04:42;10.77;;;2.80;;
23716;SDS011;22094;52.130;5.598;2023-05-17T07:07:08;14.80;;;3.13;;
23716;SDS011;22094;52.130;5.598;2023-05-17T07:09:37;13.40;;;2.90;;
23716;SDS011;22094;52.130;5.598;2023-05-17T07:12:06;11.00;;;2.60;;
23716;SDS011;22094;52.130;5.598;2023-05-17T07:14:34;11.98;;;2.75;;
23716;SDS011;22094;52.130;5.598;2023-05-17T07:17:00;12.95;;;2.92;;
23716;SDS011;22094;52.130;5.598;2023-05-17T07:19:26;10.52;;;2.75;;
23716;SDS011;22094;52.130;5.598;2023-05-17T07:21:51;10.25;;;2.40;;
23716;SDS011;22094;52.130;5.598;2023-05-17T07:24:17;9.80;;;2.17;;
23716;SDS011;22094;52.130;5.598;2023-05-17T07:26:44;10.63;;;2.35;;
23716;SDS011;22094;52.130;5.598;2023-05-17T07:29:10;13.10;;;2.75;;
23716;SDS011;22094;52.130;5.598;2023-05-17T07:31:36;10.23;;;2.65;;
23716;SDS011;22094;52.130;5.598;2023-05-17T07:34:02;7.68;;;1.90;;
23716;SDS011;22094;52.130;5.598;2023-05-17T07:36:28;14.55;;;2.65;;
23716;SDS011;22094;52.130;5.598;2023-05-17T07:38:55;12.88;;;2.70;;
23716;SDS011;22094;52.130;5.598;2023-05-17T07:41:21;12.75;;;2.38;;
23716;SDS011;22094;52.130;5.598;2023-05-17T07:43:47;10.13;;;2.80;;
23716;SDS011;22094;52.130;5.598;2023-05-17T07:46:13;12.43;;;2.45;;
23716;SDS011;22094;52.130;5.598;2023-05-17T07:48:38;11.60;;;3.00;;
23716;SDS011;22094;52.130;5.598;2023-05-17T07:51:04;10.63;;;2.85;;
23716;SDS011;22094;52.130;5.598;2023-05-17T07:53:29;13.90;;;2.75;;
23716;SDS011;22094;52.130;5.598;2023-05-17T07:55:55;12.43;;;2.70;;
23716;SDS011;22094;52.130;5.598;2023-05-17T07:58:21;12.93;;;2.97;;
23716;SDS011;22094;52.130;5.598;2023-05-17T08:00:47;12.00;;;2.35;;
23716;SDS011;22094;52.130;5.598;2023-05-17T08:03:13;12.90;;;2.95;;
23716;SDS011;22094;52.130;5.598;2023-05-17T08:05:38;9.55;;;2.55;;
23716;SDS011;22094;52.130;5.598;2023-05-17T08:08:04;10.27;;;2.40;;
23716;SDS011;22094;52.130;5.598;2023-05-17T08:10:30;10.13;;;2.85;;
23716;SDS011;22094;52.130;5.598;2023-05-17T08:12:56;14.27;;;3.70;;
23716;SDS011;22094;52.130;5.598;2023-05-17T08:15:21;8.30;;;2.42;;
23716;SDS011;22094;52.130;5.598;2023-05-17T08:17:47;11.20;;;2.42;;
23716;SDS011;22094;52.130;5.598;2023-05-17T08:20:13;11.00;;;2.42;;
23716;SDS011;22094;52.130;5.598;2023-05-17T08:22:39;9.75;;;2.17;;
23716;SDS011;22094;52.130;5.598;2023-05-17T08:25:05;7.15;;;2.00;;
23716;SDS011;22094;52.130;5.598;2023-05-17T08:27:31;12.40;;;2.33;;
23716;SDS011;22094;52.130;5.598;2023-05-17T08:29:57;10.60;;;2.40;;
23716;SDS011;22094;52.130;5.598;2023-05-17T08:32:23;10.10;;;2.33;;
23716;SDS011;22094;52.130;5.598;2023-05-17T08:34:49;10.27;;;2.08;;
23716;SDS011;22094;52.130;5.598;2023-05-17T08:37:16;10.93;;;2.25;;
23716;SDS011;22094;52.130;5.598;2023-05-17T08:39:42;8.52;;;2.08;;
23716;SDS011;22094;52.130;5.598;2023-05-17T08:42:08;12.13;;;2.10;;
23716;SDS011;22094;52.130;5.598;2023-05-17T08:44:33;14.93;;;2.40;;
23716;SDS011;22094;52.130;5.598;2023-05-17T08:47:00;9.43;;;1.88;;
23716;SDS011;22094;52.130;5.598;2023-05-17T08:49:27;10.50;;;2.63;;
23716;SDS011;22094;52.130;5.598;2023-05-17T08:51:56;8.50;;;1.80;;
23716;SDS011;22094;52.130;5.598;2023-05-17T08:54:24;5.22;;;2.00;;
23716;SDS011;22094;52.130;5.598;2023-05-17T08:56:55;9.55;;;1.80;;
23716;SDS011;22094;52.130;5.598;2023-05-17T08:59:24;7.47;;;1.70;;
23716;SDS011;22094;52.130;5.598;2023-05-17T09:01:51;13.00;;;1.85;;
23716;SDS011;22094;52.130;5.598;2023-05-17T09:04:22;9.15;;;1.60;;
23716;SDS011;22094;52.130;5.598;2023-05-17T09:06:48;9.07;;;2.08;;
23716;SDS011;22094;52.130;5.598;2023-05-17T09:09:14;14.13;;;2.15;;
23716;SDS011;22094;52.130;5.598;2023-05-17T09:11:40;6.82;;;1.73;;
23716;SDS011;22094;52.130;5.598;2023-05-17T09:14:06;6.82;;;1.73;;
23716;SDS011;22094;52.130;5.598;2023-05-17T09:16:33;7.72;;;2.08;;
23716;SDS011;22094;52.130;5.598;2023-05-17T09:19:00;4.55;;;1.17;;
23716;SDS011;22094;52.130;5.598;2023-05-17T09:21:27;8.27;;;1.80;;
23716;SDS011;22094;52.130;5.598;2023-05-17T09:23:55;10.95;;;1.88;;
23716;SDS011;22094;52.130;5.598;2023-05-17T09:26:23;8.32;;;1.63;;
23716;SDS011;22094;52.130;5.598;2023-05-17T09:28:49;6.53;;;1.40;;
23716;SDS011;22094;52.130;5.598;2023-05-17T09:31:17;6.63;;;1.80;;
23716;SDS011;22094;52.130;5.598;2023-05-17T09:33:47;11.20;;;1.90;;
23716;SDS011;22094;52.130;5.598;2023-05-17T09:36:17;5.55;;;1.50;;
23716;SDS011;22094;52.130;5.598;2023-05-17T09:38:57;4.82;;;1.58;;
23716;SDS011;22094;52.130;5.598;2023-05-17T09:41:27;6.03;;;1.30;;
23716;SDS011;22094;52.130;5.598;2023-05-17T09:43:57;8.02;;;2.03;;
23716;SDS011;22094;52.130;5.598;2023-05-17T09:46:27;4.80;;;1.50;;
23716;SDS011;22094;52.130;5.598;2023-05-17T09:48:53;4.15;;;1.67;;
23716;SDS011;22094;52.130;5.598;2023-05-17T09:51:38;9.65;;;1.75;;
23716;SDS011;22094;52.130;5.598;2023-05-17T09:54:06;6.25;;;1.35;;
23716;SDS011;22094;52.130;5.598;2023-05-17T09:56:32;6.82;;;1.70;;
23716;SDS011;22094;52.130;5.598;2023-05-17T09:59:02;6.47;;;1.90;;
23716;SDS011;22094;52.130;5.598;2023-05-17T10:01:29;4.13;;;1.20;;
23716;SDS011;22094;52.130;5.598;2023-05-17T10:04:01;5.40;;;1.98;;
23716;SDS011;22094;52.130;5.598;2023-05-17T10:06:28;9.10;;;1.73;;
23716;SDS011;22094;52.130;5.598;2023-05-17T10:08:55;6.60;;;1.90;;
23716;SDS011;22094;52.130;5.598;2023-05-17T10:11:23;6.80;;;1.77;;
23716;SDS011;22094;52.130;5.598;2023-05-17T10:14:01;8.70;;;1.67;;
23716;SDS011;22094;52.130;5.598;2023-05-17T10:16:33;5.95;;;1.50;;
23716;SDS011;22094;52.130;5.598;2023-05-17T10:18:59;9.05;;;1.52;;
23716;SDS011;22094;52.130;5.598;2023-05-17T10:21:27;6.72;;;1.85;;
23716;SDS011;22094;52.130;5.598;2023-05-17T10:23:55;6.35;;;1.88;;
23716;SDS011;22094;52.130;5.598;2023-05-17T10:26:22;8.23;;;1.85;;
23716;SDS011;22094;52.130;5.598;2023-05-17T10:28:48;6.13;;;1.88;;
23716;SDS011;22094;52.130;5.598;2023-05-17T10:31:17;5.03;;;1.63;;
23716;SDS011;22094;52.130;5.598;2023-05-17T10:33:44;5.07;;;1.67;;
23716;SDS011;22094;52.130;5.598;2023-05-17T10:36:13;8.48;;;1.98;;
23716;SDS011;22094;52.130;5.598;2023-05-17T10:38:40;5.57;;;1.73;;
23716;SDS011;22094;52.130;5.598;2023-05-17T10:41:06;7.10;;;2.35;;
23716;SDS011;22094;52.130;5.598;2023-05-17T10:43:32;4.55;;;1.80;;
23716;SDS011;22094;52.130;5.598;2023-05-17T10:45:58;6.70;;;1.83;;
23716;SDS011;22094;52.130;5.598;2023-05-17T10:48:26;9.02;;;2.15;;
23716;SDS011;22094;52.130;5.598;2023-05-17T10:50:54;6.78;;;1.80;;
23716;SDS011;22094;52.130;5.598;2023-05-17T10:53:20;9.80;;;2.40;;
23716;SDS011;22094;52.130;5.598;2023-05-17T10:55:46;9.68;;;2.20;;
23716;SDS011;22094;52.130;5.598;2023-05-17T11:00:43;7.80;;;2.42;;
23716;SDS011;22094;52.130;5.598;2023-05-17T11:03:20;8.95;;;2.35;;
23716;SDS011;22094;52.130;5.598;2023-05-17T11:11:32;5.47;;;1.90;;
23716;SDS011;22094;52.130;5.598;2023-05-17T11:14:00;4.93;;;2.00;;
23716;SDS011;22094;52.130;5.598;2023-05-17T11:16:33;11.00;;;1.90;;
23716;SDS011;22094;52.130;5.598;2023-05-17T11:19:07;8.07;;;2.40;;
23716;SDS011;22094;52.130;5.598;2023-05-17T11:21:34;8.10;;;2.05;;
23716;SDS011;22094;52.130;5.598;2023-05-17T11:24:00;12.05;;;2.35;;
23716;SDS011;22094;52.130;5.598;2023-05-17T11:26:31;11.68;;;2.13;;
23716;SDS011;22094;52.130;5.598;2023-05-17T11:29:01;9.02;;;1.92;;
23716;SDS011;22094;52.130;5.598;2023-05-17T11:31:30;12.93;;;2.33;;
23716;SDS011;22094;52.130;5.598;2023-05-17T11:33:56;10.80;;;2.35;;
23716;SDS011;22094;52.130;5.598;2023-05-17T11:36:23;8.07;;;2.10;;
23716;SDS011;22094;52.130;5.598;2023-05-17T11:38:51;8.60;;;2.03;;
23716;SDS011;22094;52.130;5.598;2023-05-17T11:41:37;8.20;;;2.10;;
23716;SDS011;22094;52.130;5.598;2023-05-17T11:44:09;5.28;;;2.00;;
23716;SDS011;22094;52.130;5.598;2023-05-17T11:46:35;9.30;;;2.35;;
23716;SDS011;22094;52.130;5.598;2023-05-17T11:49:05;15.52;;;2.30;;
23716;SDS011;22094;52.130;5.598;2023-05-17T11:51:31;10.80;;;2.38;;
23716;SDS011;22094;52.130;5.598;2023-05-17T11:53:57;10.43;;;2.00;;
23716;SDS011;22094;52.130;5.598;2023-05-17T11:56:27;10.45;;;2.10;;
23716;SDS011;22094;52.130;5.598;2023-05-17T11:58:53;8.65;;;2.47;;
23716;SDS011;22094;52.130;5.598;2023-05-17T12:01:20;9.60;;;2.58;;
23716;SDS011;22094;52.130;5.598;2023-05-17T12:03:46;11.18;;;2.22;;
23716;SDS011;22094;52.130;5.598;2023-05-17T12:06:20;6.85;;;1.80;;
23716;SDS011;22094;52.130;5.598;2023-05-17T12:08:46;10.45;;;2.38;;
23716;SDS011;22094;52.130;5.598;2023-05-17T12:11:15;6.75;;;2.20;;
23716;SDS011;22094;52.130;5.598;2023-05-17T12:13:42;7.10;;;2.15;;
23716;SDS011;22094;52.130;5.598;2023-05-17T12:16:13;8.70;;;2.03;;
23716;SDS011;22094;52.130;5.598;2023-05-17T12:18:41;11.02;;;2.53;;
23716;SDS011;22094;52.130;5.598;2023-05-17T12:21:08;9.57;;;2.08;;
23716;SDS011;22094;52.130;5.598;2023-05-17T12:23:35;11.60;;;2.33;;
23716;SDS011;22094;52.130;5.598;2023-05-17T12:26:04;7.38;;;2.33;;
23716;SDS011;22094;52.130;5.598;2023-05-17T12:28:34;9.02;;;2.05;;
23716;SDS011;22094;52.130;5.598;2023-05-17T12:31:00;7.22;;;2.10;;
23716;SDS011;22094;52.130;5.598;2023-05-17T12:33:30;8.45;;;2.45;;
23716;SDS011;22094;52.130;5.598;2023-05-17T12:35:57;8.45;;;2.00;;
23716;SDS011;22094;52.130;5.598;2023-05-17T12:38:23;10.32;;;2.03;;
23716;SDS011;22094;52.130;5.598;2023-05-17T12:40:52;8.68;;;2.30;;
23716;SDS011;22094;52.130;5.598;2023-05-17T12:43:18;8.35;;;2.05;;
23716;SDS011;22094;52.130;5.598;2023-05-17T12:45:44;9.82;;;2.30;;
23716;SDS011;22094;52.130;5.598;2023-05-17T12:48:11;10.43;;;2.42;;
23716;SDS011;22094;52.130;5.598;2023-05-17T12:50:37;7.45;;;2.10;;
23716;SDS011;22094;52.130;5.598;2023-05-17T12:53:10;8.05;;;2.15;;
23716;SDS011;22094;52.130;5.598;2023-05-17T12:55:36;9.27;;;2.10;;
23716;SDS011;22094;52.130;5.598;2023-05-17T12:58:02;7.25;;;1.70;;
23716;SDS011;22094;52.130;5.598;2023-05-17T13:00:31;7.82;;;2.38;;
23716;SDS011;22094;52.130;5.598;2023-05-17T13:02:57;9.43;;;2.15;;
23716;SDS011;22094;52.130;5.598;2023-05-17T13:05:23;6.05;;;2.05;;
23716;SDS011;22094;52.130;5.598;2023-05-17T13:07:49;7.10;;;2.25;;
23716;SDS011;22094;52.130;5.598;2023-05-17T13:10:25;8.75;;;2.13;;
23716;SDS011;22094;52.130;5.598;2023-05-17T13:12:58;15.15;;;2.67;;
23716;SDS011;22094;52.130;5.598;2023-05-17T13:15:30;8.40;;;2.22;;
23716;SDS011;22094;52.130;5.598;2023-05-17T13:17:56;24.63;;;2.90;;
23716;SDS011;22094;52.130;5.598;2023-05-17T13:20:23;10.40;;;1.90;;
23716;SDS011;22094;52.130;5.598;2023-05-17T13:22:49;7.88;;;2.47;;
23716;SDS011;22094;52.130;5.598;2023-05-17T13:25:15;6.97;;;2.22;;
23716;SDS011;22094;52.130;5.598;2023-05-17T13:27:42;8.52;;;2.10;;
23716;SDS011;22094;52.130;5.598;2023-05-17T13:30:12;7.68;;;2.10;;
23716;SDS011;22094;52.130;5.598;2023-05-17T13:32:42;9.25;;;2.05;;
23716;SDS011;22094;52.130;5.598;2023-05-17T13:35:08;10.98;;;2.53;;
23716;SDS011;22094;52.130;5.598;2023-05-17T13:37:34;10.73;;;2.10;;
23716;SDS011;22094;52.130;5.598;2023-05-17T13:40:01;10.48;;;2.47;;
23716;SDS011;22094;52.130;5.598;2023-05-17T13:42:27;13.48;;;2.83;;
23716;SDS011;22094;52.130;5.598;2023-05-17T13:44:53;7.65;;;2.05;;
23716;SDS011;22094;52.130;5.598;2023-05-17T13:47:19;10.50;;;2.10;;
23716;SDS011;22094;52.130;5.598;2023-05-17T13:49:45;7.55;;;2.03;;
23716;SDS011;22094;52.130;5.598;2023-05-17T13:52:11;10.48;;;2.42;;
23716;SDS011;22094;52.130;5.598;2023-05-17T13:54:38;10.25;;;2.42;;
23716;SDS011;22094;52.130;5.598;2023-05-17T13:57:04;13.25;;;2.40;;
23716;SDS011;22094;52.130;5.598;2023-05-17T13:59:31;9.45;;;2.35;;
23716;SDS011;22094;52.130;5.598;2023-05-17T14:01:57;9.43;;;2.20;;
23716;SDS011;22094;52.130;5.598;2023-05-17T14:04:23;12.07;;;2.40;;
23716;SDS011;22094;52.130;5.598;2023-05-17T14:06:49;9.80;;;2.35;;
23716;SDS011;22094;52.130;5.598;2023-05-17T14:09:15;9.00;;;2.45;;
23716;SDS011;22094;52.130;5.598;2023-05-17T14:11:41;11.88;;;2.40;;
23716;SDS011;22094;52.130;5.598;2023-05-17T14:14:07;9.15;;;1.80;;
23716;SDS011;22094;52.130;5.598;2023-05-17T14:16:33;11.57;;;2.38;;
23716;SDS011;22094;52.130;5.598;2023-05-17T14:18:59;6.95;;;2.08;;
23716;SDS011;22094;52.130;5.598;2023-05-17T14:21:25;9.80;;;2.53;;
23716;SDS011;22094;52.130;5.598;2023-05-17T14:23:51;13.80;;;2.78;;
23716;SDS011;22094;52.130;5.598;2023-05-17T14:26:17;8.40;;;2.05;;
23716;SDS011;22094;52.130;5.598;2023-05-17T14:28:42;12.85;;;2.42;;
23716;SDS011;22094;52.130;5.598;2023-05-17T14:31:08;10.13;;;2.58;;
23716;SDS011;22094;52.130;5.598;2023-05-17T14:33:35;9.25;;;2.42;;
23716;SDS011;22094;52.130;5.598;2023-05-17T14:36:00;10.95;;;2.25;;
23716;SDS011;22094;52.130;5.598;2023-05-17T14:38:27;9.07;;;2.20;;
23716;SDS011;22094;52.130;5.598;2023-05-17T14:40:53;8.98;;;2.00;;
23716;SDS011;22094;52.130;5.598;2023-05-17T14:43:20;11.95;;;2.75;;
23716;SDS011;22094;52.130;5.598;2023-05-17T14:45:46;6.40;;;1.92;;
23716;SDS011;22094;52.130;5.598;2023-05-17T14:48:12;11.35;;;2.90;;